Time;durP1;ratioP1;P1;durP2;ratioP2;P2;SDS_P1;SDS_P2;PMS_P1;PMS_P2;Temp;Humidity;BMP_temperature;BMP_pressure;BME280_temperature;BME280_humidity;BME280_pressure;Samples;Min_cycle;Max_cycle;Signal;HPM_P1;HPM_P2
2022/09/07 00:01:54;;;;;;;3.70;1.10;;;30.20;99.90;;;;;;4972152;28;20483;-57
2022/09/07 00:04:20;;;;;;;5.43;1.05;;;30.20;99.90;;;;;;4971887;28;20081;-57
2022/09/07 00:06:46;;;;;;;6.60;1.08;;;30.10;99.90;;;;;;4971842;28;20038;-56
2022/09/07 00:09:12;;;;;;;8.40;1.13;;;30.10;99.90;;;;;;4972104;28;20023;-56
2022/09/07 00:11:37;;;;;;;9.52;1.33;;;30.10;99.90;;;;;;4971763;28;20038;-57
2022/09/07 00:14:04;;;;;;;6.30;1.33;;;30.10;99.90;;;;;;4977741;28;20023;-56
2022/09/07 00:16:30;;;;;;;5.45;1.27;;;30.10;99.90;;;;;;4960524;28;20063;-56
2022/09/07 00:18:58;;;;;;;4.85;1.48;;;30.10;99.90;;;;;;4963665;28;20545;-56
2022/09/07 00:21:24;;;;;;;7.28;1.98;;;30.00;99.90;;;;;;4968176;28;20042;-58
2022/09/07 00:23:50;;;;;;;5.53;2.90;;;30.00;99.90;;;;;;4973611;28;20065;-56
2022/09/07 00:26:21;;;;;;;9.63;4.07;;;30.00;99.90;;;;;;4972836;28;20022;-56
2022/09/07 00:28:48;;;;;;;6.47;2.83;;;30.00;99.90;;;;;;4972629;28;20030;-56
2022/09/07 00:31:17;;;;;;;11.57;2.17;;;30.00;99.90;;;;;;4973485;28;20134;-56
2022/09/07 00:33:43;;;;;;;8.98;2.10;;;30.00;99.90;;;;;;4973192;28;20105;-57
2022/09/07 00:36:09;;;;;;;10.05;1.60;;;29.90;99.90;;;;;;4973003;28;20355;-56
2022/09/07 00:38:35;;;;;;;9.73;1.92;;;29.80;99.90;;;;;;4966746;28;20062;-56
2022/09/07 00:41:01;;;;;;;6.78;1.60;;;29.60;99.90;;;;;;4971507;28;20426;-57
2022/09/07 00:43:32;;;;;;;10.35;2.53;;;29.50;99.90;;;;;;4973384;28;20069;-57
2022/09/07 00:45:58;;;;;;;7.30;1.40;;;29.30;99.90;;;;;;4972244;28;20114;-57
2022/09/07 00:48:37;;;;;;;7.82;1.48;;;29.20;99.90;;;;;;4971559;28;20105;-57
2022/09/07 00:51:10;;;;;;;3.80;1.17;;;29.20;99.90;;;;;;4972895;28;20034;-57
2022/09/07 00:53:45;;;;;;;4.60;1.13;;;29.20;99.90;;;;;;4971155;28;20066;-56
2022/09/07 00:56:12;;;;;;;8.70;2.05;;;29.20;99.90;;;;;;4971577;28;20391;-56
2022/09/07 00:58:41;;;;;;;4.15;1.10;;;29.20;99.90;;;;;;4972695;28;20023;-57
2022/09/07 01:01:08;;;;;;;10.07;1.38;;;29.20;99.90;;;;;;4998884;23;20062;-46
2022/09/07 01:03:39;;;;;;;6.45;1.40;;;29.10;99.90;;;;;;4992549;28;20057;-46
2022/09/07 01:06:14;;;;;;;3.08;1.30;;;29.10;99.90;;;;;;4987253;28;20023;-47
2022/09/07 01:08:42;;;;;;;3.03;1.23;;;29.10;99.90;;;;;;4991821;28;20018;-46
2022/09/07 01:11:08;;;;;;;3.72;0.90;;;29.10;99.90;;;;;;4991992;28;20306;-47
2022/09/07 01:13:35;;;;;;;3.67;1.02;;;29.20;99.90;;;;;;4992422;28;20026;-46
2022/09/07 01:16:11;;;;;;;5.30;0.87;;;29.10;99.90;;;;;;4991740;28;20026;-46
2022/09/07 01:19:03;;;;;;;2.30;1.02;;;29.20;99.90;;;;;;4991607;28;20279;-46
2022/09/07 01:21:57;;;;;;;6.07;0.85;;;29.20;99.90;;;;;;4974785;28;20026;-46
2022/09/07 01:24:57;;;;;;;3.88;0.73;;;29.20;99.90;;;;;;4994200;28;20026;-47
2022/09/07 01:27:25;;;;;;;6.03;1.13;;;29.20;99.90;;;;;;4994215;28;20026;-47
2022/09/07 01:30:04;;;;;;;3.40;1.20;;;29.20;99.90;;;;;;4992452;28;20093;-47
2022/09/07 01:32:49;;;;;;;3.53;1.25;;;29.20;99.90;;;;;;4992340;28;20037;-47
2022/09/07 01:35:24;;;;;;;7.07;1.13;;;29.20;99.90;;;;;;4993888;28;20050;-47
2022/09/07 01:38:16;;;;;;;2.58;0.90;;;29.20;99.90;;;;;;4993778;28;20041;-47
2022/09/07 01:41:06;;;;;;;3.13;1.25;;;29.20;99.90;;;;;;4992453;28;20030;-47
2022/09/07 01:43:47;;;;;;;6.38;1.17;;;29.20;99.90;;;;;;4993825;28;20026;-47
2022/09/07 01:46:29;;;;;;;5.30;1.10;;;29.30;99.90;;;;;;4991040;28;20780;-46
2022/09/07 01:49:04;;;;;;;5.65;1.35;;;29.30;99.90;;;;;;4974351;28;20097;-47
2022/09/07 01:51:34;;;;;;;6.65;2.28;;;29.40;99.90;;;;;;4974026;28;20040;-46
2022/09/07 01:54:29;;;;;;;6.70;1.67;;;29.40;99.90;;;;;;4974004;28;20027;-47
2022/09/07 01:57:00;;;;;;;12.45;2.42;;;29.00;99.90;;;;;;4974089;28;20023;-47
2022/09/07 01:59:37;;;;;;;8.82;2.17;;;28.80;99.90;;;;;;4985542;23;20027;-59
2022/09/07 02:02:32;;;;;;;7.32;2.22;;;28.40;99.90;;;;;;4974017;28;20591;-58
2022/09/07 02:05:07;;;;;;;6.72;2.50;;;28.20;99.90;;;;;;4973426;28;20554;-60
2022/09/07 02:07:44;;;;;;;8.38;3.00;;;27.90;99.90;;;;;;4973871;28;20114;-58
2022/09/07 02:10:28;;;;;;;7.32;1.80;;;27.70;99.90;;;;;;4973801;28;20035;-58
2022/09/07 02:13:11;;;;;;;6.82;1.88;;;27.50;99.90;;;;;;4972107;28;20031;-58
2022/09/07 02:16:06;;;;;;;12.65;2.53;;;27.40;99.90;;;;;;4972673;28;20390;-58
2022/09/07 02:18:40;;;;;;;10.90;2.65;;;27.20;99.90;;;;;;4973803;28;20031;-58
2022/09/07 02:21:07;;;;;;;11.23;2.75;;;27.10;99.90;;;;;;4973418;28;20027;-58
2022/09/07 02:23:39;;;;;;;8.07;2.33;;;27.10;99.90;;;;;;4972358;28;20057;-60
2022/09/07 02:26:11;;;;;;;9.23;2.50;;;27.00;99.90;;;;;;4973591;28;20046;-59
2022/09/07 02:28:38;;;;;;;13.60;2.80;;;26.90;99.90;;;;;;4973448;28;20029;-58
2022/09/07 02:31:04;;;;;;;7.78;2.10;;;26.90;99.90;;;;;;4973286;28;20427;-58
2022/09/07 02:33:30;;;;;;;12.07;2.85;;;26.80;99.90;;;;;;4973442;28;20049;-58
2022/09/07 02:35:57;;;;;;;7.45;1.65;;;26.80;99.90;;;;;;4973718;28;20078;-58
2022/09/07 02:38:23;;;;;;;7.57;2.47;;;26.70;99.90;;;;;;4973199;28;20026;-58
2022/09/07 02:40:51;;;;;;;7.43;1.88;;;26.70;99.90;;;;;;4973208;28;20026;-58
2022/09/07 02:43:18;;;;;;;;;;;26.70;99.90;;;;;;4971699;28;20019;-58
2022/09/07 02:45:46;;;;;;;10.73;2.20;;;26.60;99.90;;;;;;4973290;28;19913;-58
2022/09/07 02:48:27;;;;;;;8.23;2.47;;;26.60;99.90;;;;;;4973076;28;20467;-58
2022/09/07 02:51:15;;;;;;;10.07;2.40;;;26.60;99.90;;;;;;4973386;28;20039;-58
2022/09/07 02:53:57;;;;;;;9.25;2.95;;;26.60;99.90;;;;;;4973003;28;20060;-58
2022/09/07 02:56:29;;;;;;;10.30;2.65;;;26.50;99.90;;;;;;4971878;28;20030;-58
2022/09/07 02:59:31;;;;;;;7.32;2.70;;;26.50;99.90;;;;;;4973045;28;20030;-58
2022/09/07 03:02:20;;;;;;;6.45;1.60;;;26.50;99.90;;;;;;4971937;28;20043;-59
2022/09/07 03:04:56;;;;;;;5.25;2.20;;;26.50;99.90;;;;;;4972795;28;20027;-58
2022/09/07 03:07:27;;;;;;;11.38;3.17;;;26.50;99.90;;;;;;4972837;28;20513;-58
2022/09/07 03:09:56;;;;;;;12.15;2.83;;;26.40;99.90;;;;;;4972715;28;20039;-58
2022/09/07 03:12:22;;;;;;;11.25;3.17;;;26.40;99.90;;;;;;4972918;28;20023;-58
2022/09/07 03:14:48;;;;;;;11.63;2.92;;;26.30;99.90;;;;;;4972723;28;20060;-58
2022/09/07 03:17:14;;;;;;;14.80;4.40;;;26.30;99.90;;;;;;4972844;28;20030;-58
2022/09/07 03:19:40;;;;;;;12.93;4.10;;;26.30;99.90;;;;;;4972652;28;20379;-59
2022/09/07 03:22:06;;;;;;;15.32;3.72;;;26.20;99.90;;;;;;4972784;28;20113;-58
2022/09/07 03:24:32;;;;;;;10.88;4.57;;;26.20;99.90;;;;;;4971620;28;20212;-58
2022/09/07 03:26:59;;;;;;;18.02;4.70;;;26.10;99.90;;;;;;4971573;28;20118;-58
2022/09/07 03:29:25;;;;;;;13.70;4.75;;;26.10;99.90;;;;;;4972513;28;20041;-58
2022/09/07 03:31:50;;;;;;;12.90;4.82;;;26.00;99.90;;;;;;4972543;28;20027;-60
2022/09/07 03:34:16;;;;;;;21.35;6.72;;;26.00;99.90;;;;;;4972561;28;20031;-59
2022/09/07 03:36:42;;;;;;;14.90;5.03;;;25.90;99.90;;;;;;4972553;28;20570;-58
2022/09/07 03:39:11;;;;;;;14.77;5.15;;;25.90;99.90;;;;;;4971198;28;20074;-58
2022/09/07 03:41:37;;;;;;;18.17;6.10;;;25.80;99.90;;;;;;4972442;28;20478;-59
2022/09/07 03:44:04;;;;;;;22.83;8.02;;;25.70;99.90;;;;;;4972621;28;20041;-58
2022/09/07 03:46:30;;;;;;;17.80;6.40;;;25.70;99.90;;;;;;4972317;28;20467;-58
2022/09/07 03:48:55;;;;;;;14.35;6.65;;;25.60;99.90;;;;;;4972438;28;20110;-59
2022/09/07 03:51:21;;;;;;;18.20;7.95;;;25.50;99.90;;;;;;4972361;28;20038;-58
2022/09/07 03:53:47;;;;;;;23.27;7.68;;;25.50;99.90;;;;;;4972295;28;20027;-59
2022/09/07 03:56:17;;;;;;;17.15;6.70;;;25.50;99.90;;;;;;4974408;28;20031;-58
2022/09/07 03:58:44;;;;;;;18.77;7.70;;;25.40;99.90;;;;;;4976216;28;20037;-58
2022/09/07 04:01:22;;;;;;;17.95;7.45;;;25.40;99.90;;;;;;5033712;23;20437;-47
2022/09/07 04:03:47;;;;;;;14.60;7.53;;;25.40;99.90;;;;;;5034890;28;20111;-47
2022/09/07 04:06:14;;;;;;;29.70;8.13;;;25.30;99.90;;;;;;5034764;28;20065;-47
2022/09/07 04:08:41;;;;;;;17.85;7.82;;;25.30;99.90;;;;;;5034810;28;20032;-47
2022/09/07 04:11:09;;;;;;;22.07;8.73;;;25.30;99.90;;;;;;5034924;28;20029;-47
2022/09/07 04:13:35;;;;;;;19.75;7.57;;;25.30;99.90;;;;;;5034853;28;20025;-46
2022/09/07 04:16:19;;;;;;;24.50;7.88;;;25.30;99.90;;;;;;5034945;28;20021;-47
2022/09/07 04:18:45;;;;;;;17.27;7.53;;;25.20;99.90;;;;;;5034649;28;20017;-46
2022/09/07 04:21:12;;;;;;;20.38;7.60;;;25.20;99.90;;;;;;5034833;28;20026;-47
2022/09/07 04:23:39;;;;;;;20.67;7.18;;;25.20;99.90;;;;;;5033208;28;20105;-45
2022/09/07 04:26:05;;;;;;;;;;;25.20;99.90;;;;;;5035167;28;20022;-46
2022/09/07 04:28:31;;;;;;;18.50;7.70;;;25.10;99.90;;;;;;5034728;28;20395;-47
2022/09/07 04:31:01;;;;;;;18.15;6.85;;;25.10;99.90;;;;;;5034340;28;20477;-46
2022/09/07 04:33:29;;;;;;;15.10;6.25;;;25.10;99.90;;;;;;5034455;28;20048;-47
2022/09/07 04:35:55;;;;;;;21.33;7.13;;;25.10;99.90;;;;;;5034462;28;20036;-47
2022/09/07 04:38:20;;;;;;;20.00;6.13;;;25.00;99.90;;;;;;5034336;28;20022;-45
2022/09/07 04:40:46;;;;;;;15.80;6.55;;;25.00;99.90;;;;;;5034230;28;20056;-47
2022/09/07 04:43:12;;;;;;;23.20;6.50;;;25.00;99.90;;;;;;5034273;28;20484;-47
2022/09/07 04:45:39;;;;;;;17.52;5.95;;;25.00;99.90;;;;;;5032879;28;20053;-47
2022/09/07 04:48:05;;;;;;;20.17;6.03;;;25.00;99.90;;;;;;5034282;28;20465;-48
2022/09/07 04:50:30;;;;;;;17.65;5.95;;;25.00;99.90;;;;;;5034093;28;20282;-47
2022/09/07 04:52:56;;;;;;;18.65;5.55;;;25.00;99.90;;;;;;5033994;28;20806;-46
2022/09/07 04:55:22;;;;;;;14.43;4.32;;;25.00;99.90;;;;;;5033992;28;20342;-47
2022/09/07 04:57:49;;;;;;;20.58;6.30;;;25.00;99.90;;;;;;5033941;28;20373;-46
2022/09/07 05:00:15;;;;;;;19.67;6.78;;;25.00;99.90;;;;;;5032533;28;20405;-47
2022/09/07 05:02:41;;;;;;;23.83;6.72;;;25.00;99.90;;;;;;5033939;28;20109;-48
2022/09/07 05:05:07;;;;;;;19.30;6.57;;;25.00;99.90;;;;;;5034009;28;20096;-46
2022/09/07 05:07:33;;;;;;;20.98;6.63;;;24.90;99.90;;;;;;5033171;28;20084;-47
2022/09/07 05:09:58;;;;;;;22.40;6.88;;;24.90;99.90;;;;;;5033808;28;20030;-46
2022/09/07 05:12:24;;;;;;;20.65;6.97;;;24.80;99.90;;;;;;5033685;28;20040;-47
2022/09/07 05:14:50;;;;;;;20.40;6.47;;;24.80;99.90;;;;;;5033573;28;20100;-47
2022/09/07 05:17:18;;;;;;;23.33;7.15;;;24.80;99.90;;;;;;5033634;28;20032;-47
2022/09/07 05:19:43;;;;;;;20.60;7.72;;;24.70;99.90;;;;;;5033636;28;20037;-47
2022/09/07 05:22:09;;;;;;;14.45;6.22;;;24.60;99.90;;;;;;5033572;28;20350;-46
2022/09/07 05:24:35;;;;;;;24.33;8.40;;;24.50;99.90;;;;;;5032565;28;20538;-47
2022/09/07 05:27:02;;;;;;;18.38;6.97;;;24.50;99.90;;;;;;5033337;28;20033;-47
2022/09/07 05:29:29;;;;;;;23.38;7.55;;;24.50;99.90;;;;;;5033278;28;20034;-47
2022/09/07 05:31:55;;;;;;;22.13;8.15;;;24.40;99.90;;;;;;5033415;28;20036;-47
2022/09/07 05:34:21;;;;;;;27.92;6.55;;;24.40;99.90;;;;;;5033313;28;20599;-47
2022/09/07 05:36:47;;;;;;;18.70;4.55;;;24.40;99.90;;;;;;5033313;28;20107;-47
2022/09/07 05:39:12;;;;;;;17.05;6.72;;;24.50;99.90;;;;;;5033146;28;20477;-47
2022/09/07 05:41:38;;;;;;;23.98;6.22;;;24.50;99.90;;;;;;5033236;28;20103;-46
2022/09/07 05:44:05;;;;;;;16.15;5.20;;;24.60;99.90;;;;;;5033065;28;20469;-47
2022/09/07 05:46:31;;;;;;;16.38;4.55;;;24.70;99.90;;;;;;5033077;28;20029;-47
2022/09/07 05:48:59;;;;;;;17.55;4.97;;;24.70;99.90;;;;;;5033427;28;20028;-47
2022/09/07 05:51:25;;;;;;;16.98;4.53;;;24.90;99.90;;;;;;5033139;28;20104;-47
2022/09/07 05:53:51;;;;;;;26.83;5.43;;;25.00;99.90;;;;;;5032792;28;20030;-46
2022/09/07 05:56:17;;;;;;;18.60;4.90;;;25.00;99.90;;;;;;5032671;28;20104;-47
2022/09/07 05:58:47;;;;;;;16.45;5.30;;;25.10;99.90;;;;;;5032766;28;20033;-47
2022/09/07 06:01:14;;;;;;;17.08;5.45;;;25.10;99.90;;;;;;5032738;28;20103;-47
2022/09/07 06:03:41;;;;;;;17.30;5.63;;;25.00;99.90;;;;;;5032998;28;20064;-47
2022/09/07 06:06:11;;;;;;;21.35;5.38;;;25.00;99.90;;;;;;5032867;28;20018;-47
2022/09/07 06:08:39;;;;;;;17.35;5.68;;;25.00;99.90;;;;;;5032922;28;20477;-47
2022/09/07 06:11:16;;;;;;;14.77;5.75;;;25.10;99.90;;;;;;5032411;28;20068;-47
2022/09/07 06:13:42;;;;;;;21.67;5.35;;;25.10;99.90;;;;;;5032443;28;20477;-46
2022/09/07 06:16:10;;;;;;;19.48;5.65;;;25.10;99.90;;;;;;5032921;28;20376;-47
2022/09/07 06:18:36;;;;;;;;;;;25.20;99.90;;;;;;5032894;28;20065;-46
2022/09/07 06:21:07;;;;;;;21.00;6.00;;;25.20;99.90;;;;;;5032316;28;19905;-47
2022/09/07 06:23:34;;;;;;;17.35;6.28;;;25.20;99.90;;;;;;5032334;28;20053;-48
2022/09/07 06:26:01;;;;;;;33.63;11.38;;;25.20;99.90;;;;;;5032331;28;20029;-47
2022/09/07 06:28:32;;;;;;;21.65;6.68;;;25.20;99.90;;;;;;5032152;28;20389;-47
2022/09/07 06:31:14;;;;;;;21.10;7.32;;;25.20;99.90;;;;;;5032136;28;20638;-47
2022/09/07 06:33:41;;;;;;;25.90;7.93;;;25.10;99.90;;;;;;5032262;28;20064;-47
2022/09/07 06:36:11;;;;;;;;;;;25.20;99.90;;;;;;5032756;28;20030;-46
2022/09/07 06:38:38;;;;;;;12.25;3.85;;;25.20;99.90;;;;;;5032247;28;20372;-48
2022/09/07 06:41:10;;;;;;;21.23;7.43;;;25.10;99.90;;;;;;5032013;28;20026;-47
2022/09/07 06:43:36;;;;;;;20.58;5.80;;;25.20;99.90;;;;;;5032099;28;20601;-46
2022/09/07 06:46:02;;;;;;;23.55;7.38;;;25.10;99.90;;;;;;5032051;28;20100;-47
2022/09/07 06:48:28;;;;;;;17.75;5.32;;;25.10;99.90;;;;;;5031907;28;20128;-47
2022/09/07 06:50:55;;;;;;;16.80;6.75;;;25.10;99.90;;;;;;5031531;28;20194;-47
2022/09/07 06:53:20;;;;;;;9.00;3.57;;;25.10;99.90;;;;;;5030384;28;20022;-47
2022/09/07 06:55:46;;;;;;;19.27;5.82;;;25.20;99.90;;;;;;5031606;28;20037;-47
2022/09/07 06:58:12;;;;;;;18.05;6.32;;;25.20;99.90;;;;;;5030359;28;20354;-47
2022/09/07 07:00:38;;;;;;;14.52;4.97;;;25.30;99.90;;;;;;5031365;28;20053;-47
2022/09/07 07:03:03;;;;;;;13.48;3.97;;;25.30;99.90;;;;;;5030040;28;20025;-48
2022/09/07 07:05:30;;;;;;;11.93;4.43;;;25.30;99.90;;;;;;5031487;28;20032;-47
2022/09/07 07:07:56;;;;;;;9.80;3.73;;;25.40;99.90;;;;;;5031567;28;20072;-47
2022/09/07 07:10:23;;;;;;;9.07;3.15;;;25.50;99.90;;;;;;5031385;28;20107;-47
2022/09/07 07:12:48;;;;;;;14.43;3.60;;;25.70;99.90;;;;;;5031347;28;20025;-47
2022/09/07 07:15:14;;;;;;;14.07;4.50;;;25.70;99.90;;;;;;5031517;28;20105;-47
2022/09/07 07:17:40;;;;;;;10.02;3.92;;;25.90;99.90;;;;;;5031524;28;20348;-47
2022/09/07 07:20:06;;;;;;;11.13;4.82;;;25.90;99.90;;;;;;5031232;28;20445;-47
2022/09/07 07:22:32;;;;;;;8.80;3.83;;;26.00;99.90;;;;;;5031327;28;20024;-47
2022/09/07 07:24:58;;;;;;;12.90;4.05;;;26.10;99.90;;;;;;5031358;28;20120;-47
2022/09/07 07:27:23;;;;;;;11.75;3.67;;;26.10;99.90;;;;;;5031216;28;20017;-47
2022/09/07 07:29:51;;;;;;;11.98;3.40;;;26.20;99.90;;;;;;5030667;28;20034;-47
2022/09/07 07:32:16;;;;;;;8.77;3.70;;;26.20;99.90;;;;;;5031164;28;20122;-47
2022/09/07 07:34:42;;;;;;;9.07;3.00;;;26.30;99.90;;;;;;5031368;28;20454;-47
2022/09/07 07:37:08;;;;;;;10.63;2.88;;;26.40;99.90;;;;;;5030806;28;20029;-47
2022/09/07 07:39:34;;;;;;;5.40;2.58;;;26.50;99.90;;;;;;5031053;28;20036;-47
2022/09/07 07:41:59;;;;;;;7.95;3.40;;;26.50;99.90;;;;;;5030853;28;20025;-47
2022/09/07 07:44:25;;;;;;;5.53;2.58;;;26.60;99.90;;;;;;5030843;28;20037;-46
2022/09/07 07:46:51;;;;;;;11.18;3.22;;;26.60;99.90;;;;;;5030943;28;20029;-47
2022/09/07 07:49:17;;;;;;;8.73;3.00;;;26.70;99.90;;;;;;5030880;28;20026;-47
2022/09/07 07:51:43;;;;;;;8.15;3.45;;;26.80;99.90;;;;;;5030956;28;20091;-46
2022/09/07 07:54:09;;;;;;;14.57;3.78;;;26.80;99.90;;;;;;5030765;28;20025;-46
2022/09/07 07:56:34;;;;;;;13.27;5.05;;;26.90;99.90;;;;;;5029698;28;20029;-46
2022/09/07 07:59:00;;;;;;;5.13;2.92;;;27.00;99.90;;;;;;5030780;28;20432;-46
2022/09/07 08:01:26;;;;;;;12.25;3.63;;;27.10;99.90;;;;;;5030573;28;20057;-46
2022/09/07 08:03:52;;;;;;;5.78;2.92;;;27.10;99.90;;;;;;5030928;28;20025;-46
2022/09/07 08:06:20;;;;;;;7.82;3.08;;;27.20;99.90;;;;;;5030873;28;20453;-46
2022/09/07 08:08:46;;;;;;;5.10;3.53;;;27.30;99.90;;;;;;5030963;28;20048;-46
2022/09/07 08:11:17;;;;;;;11.35;3.00;;;27.30;99.90;;;;;;5030748;28;20037;-47
2022/09/07 08:13:45;;;;;;;5.93;2.40;;;27.40;99.90;;;;;;5030914;28;20017;-46
2022/09/07 08:16:11;;;;;;;7.35;2.65;;;27.50;99.90;;;;;;5030842;28;20489;-46
2022/09/07 08:18:38;;;;;;;7.95;2.58;;;27.60;99.90;;;;;;5029251;28;20033;-46
2022/09/07 08:21:11;;;;;;;9.30;3.00;;;27.60;99.90;;;;;;5030644;28;20025;-46
2022/09/07 08:23:37;;;;;;;7.45;2.70;;;27.70;99.90;;;;;;5029338;28;20034;-46
2022/09/07 08:26:04;;;;;;;10.73;3.00;;;27.80;99.90;;;;;;5030727;28;20097;-46
2022/09/07 08:28:32;;;;;;;4.82;2.47;;;27.90;99.90;;;;;;5030601;28;20753;-47
2022/09/07 08:30:58;;;;;;;12.48;2.70;;;27.90;99.90;;;;;;5030546;28;20117;-47
2022/09/07 08:33:24;;;;;;;8.35;2.80;;;28.00;99.90;;;;;;5030687;28;20071;-47
2022/09/07 08:36:11;;;;;;;7.75;3.55;;;28.10;99.90;;;;;;5030588;28;20030;-47
2022/09/07 08:38:37;;;;;;;;;;;28.10;99.90;;;;;;5030973;28;20158;-47
2022/09/07 08:41:39;;;;;;;9.65;2.88;;;28.20;99.90;;;;;;5030446;28;19959;-48
2022/09/07 08:44:24;;;;;;;5.78;2.70;;;28.30;99.90;;;;;;5034047;28;20083;-47
2022/09/07 08:46:55;;;;;;;9.80;2.38;;;28.30;99.90;;;;;;5034034;28;20096;-46
2022/09/07 08:49:27;;;;;;;6.82;2.35;;;28.40;99.90;;;;;;5033983;28;20124;-47
2022/09/07 08:51:59;;;;;;;4.03;2.55;;;28.50;99.90;;;;;;5033981;28;20505;-47
2022/09/07 08:54:25;;;;;;;8.13;2.42;;;28.60;99.90;;;;;;5033785;28;20129;-48
2022/09/07 08:56:55;;;;;;;9.40;3.00;;;28.60;99.90;;;;;;5033927;28;20092;-47
2022/09/07 08:59:25;;;;;;;6.05;2.63;;;28.70;99.90;;;;;;5033643;28;20021;-47
2022/09/07 09:01:51;;;;;;;8.40;2.20;;;28.70;99.90;;;;;;5033827;28;20120;-47
2022/09/07 09:04:27;;;;;;;6.57;2.65;;;28.80;99.90;;;;;;5033963;28;20049;-47
2022/09/07 09:07:15;;;;;;;4.65;2.22;;;28.90;99.90;;;;;;5033758;28;20025;-47
2022/09/07 09:10:02;;;;;;;4.25;2.20;;;28.90;99.90;;;;;;5033376;28;20025;-48
2022/09/07 09:12:54;;;;;;;7.95;2.67;;;29.00;99.90;;;;;;5033638;28;20488;-48
2022/09/07 09:15:25;;;;;;;10.00;2.05;;;29.10;99.90;;;;;;5033761;28;20032;-48
2022/09/07 09:17:50;;;;;;;7.13;2.40;;;29.10;99.90;;;;;;5033428;28;20028;-47
2022/09/07 09:20:35;;;;;;;8.38;2.30;;;29.10;99.90;;;;;;5033563;28;20473;-48
2022/09/07 09:23:11;;;;;;;11.70;2.72;;;29.20;99.90;;;;;;5033460;28;20413;-48
2022/09/07 09:25:41;;;;;;;9.95;2.25;;;29.30;99.90;;;;;;5033463;28;20025;-47
2022/09/07 09:28:11;;;;;;;8.23;2.70;;;29.30;99.90;;;;;;5033393;28;20088;-48
2022/09/07 09:30:37;;;;;;;10.18;2.45;;;29.50;99.90;;;;;;5033241;28;20393;-48
2022/09/07 09:33:13;;;;;;;10.35;2.08;;;29.50;99.90;;;;;;5033406;28;20025;-47
2022/09/07 09:35:40;;;;;;;10.95;2.50;;;29.50;99.90;;;;;;5033271;28;20026;-48
2022/09/07 09:38:32;;;;;;;5.13;2.40;;;29.60;99.90;;;;;;5033018;28;20040;-48
2022/09/07 09:41:10;;;;;;;7.40;2.00;;;29.70;99.90;;;;;;5032803;28;20291;-47
2022/09/07 09:43:57;;;;;;;8.30;2.03;;;29.70;99.90;;;;;;5032768;28;20029;-48
2022/09/07 09:46:35;;;;;;;8.70;2.30;;;29.80;99.90;;;;;;5032662;28;20021;-48
2022/09/07 09:49:14;;;;;;;16.08;2.70;;;29.90;99.90;;;;;;5032692;28;20033;-48
2022/09/07 09:51:43;;;;;;;9.55;2.20;;;29.90;99.90;;;;;;5030949;28;20074;-48
2022/09/07 09:54:28;;;;;;;15.27;2.38;;;30.00;99.90;;;;;;5038692;28;20523;-47
2022/09/07 09:56:54;;;;;;;7.10;1.90;;;30.00;99.90;;;;;;5039234;28;20034;-47
2022/09/07 09:59:23;;;;;;;9.98;2.85;;;30.10;99.90;;;;;;5039264;28;20025;-47
2022/09/07 10:01:49;;;;;;;7.72;2.10;;;30.10;99.90;;;;;;5021033;28;20030;-48
2022/09/07 10:04:30;;;;;;;7.82;2.30;;;30.30;99.90;;;;;;5022071;28;20048;-47
2022/09/07 10:07:16;;;;;;;13.23;2.13;;;30.30;99.90;;;;;;5016945;28;20026;-45
2022/09/07 10:09:49;;;;;;;7.03;2.22;;;30.30;99.90;;;;;;5020703;28;20026;-45
2022/09/07 10:12:34;;;;;;;5.55;2.42;;;30.40;99.90;;;;;;5021364;28;20029;-47
2022/09/07 10:15:03;;;;;;;9.43;2.35;;;30.50;99.90;;;;;;5024260;28;20029;-47
2022/09/07 10:17:36;;;;;;;7.82;1.90;;;30.50;99.90;;;;;;5020114;28;20497;-46
2022/09/07 10:20:20;;;;;;;4.82;3.03;;;30.60;99.90;;;;;;5026357;28;20458;-48
2022/09/07 10:22:58;;;;;;;6.15;1.83;;;30.70;99.90;;;;;;5015503;28;20437;-46
2022/09/07 10:25:38;;;;;;;12.05;2.10;;;30.80;99.90;;;;;;5021106;28;20017;-47
2022/09/07 10:28:13;;;;;;;14.50;1.98;;;30.90;99.90;;;;;;5022330;28;20109;-46
2022/09/07 10:31:04;;;;;;;10.57;2.00;;;31.00;99.90;;;;;;5021442;28;20037;-46
2022/09/07 10:33:52;;;;;;;6.47;1.98;;;31.00;99.90;;;;;;5022615;28;20051;-47
2022/09/07 10:36:36;;;;;;;10.00;2.05;;;31.10;99.90;;;;;;5015712;28;20112;-47
2022/09/07 10:39:26;;;;;;;11.80;2.20;;;31.20;99.90;;;;;;5015806;28;20098;-47
2022/09/07 10:42:28;;;;;;;10.80;1.90;;;31.20;99.90;;;;;;5012078;28;20116;-48
2022/09/07 10:44:54;;;;;;;14.38;2.03;;;31.40;99.90;;;;;;5012270;28;20066;-49
2022/09/07 10:47:38;;;;;;;8.75;2.63;;;31.50;99.90;;;;;;5014164;28;20053;-48
2022/09/07 10:50:08;;;;;;;9.13;2.03;;;31.60;99.90;;;;;;5022635;28;20497;-48
2022/09/07 10:53:12;;;;;;;9.02;2.38;;;31.60;99.90;;;;;;5031569;28;20029;-48
2022/09/07 10:55:41;;;;;;;4.00;1.85;;;31.60;99.90;;;;;;5031611;28;20096;-48
2022/09/07 10:58:44;;;;;;;5.28;3.17;;;31.70;99.90;;;;;;5016748;28;20113;-49
2022/09/07 11:01:20;;;;;;;10.80;2.70;;;31.70;99.90;;;;;;5021082;28;20509;-47
2022/09/07 11:04:15;;;;;;;9.32;2.28;;;31.80;99.90;;;;;;5021187;28;20030;-49
2022/09/07 11:06:48;;;;;;;5.82;1.90;;;31.90;99.90;;;;;;5003430;28;20223;-48
2022/09/07 11:09:30;;;;;;;7.15;2.58;;;32.00;99.90;;;;;;5019954;28;20013;-48
2022/09/07 11:12:01;;;;;;;6.72;1.63;;;32.20;99.90;;;;;;5011903;28;20029;-49
2022/09/07 11:14:30;;;;;;;5.97;1.95;;;32.30;99.90;;;;;;5011804;28;20054;-48
2022/09/07 11:17:12;;;;;;;9.75;3.55;;;32.30;99.90;;;;;;5011576;28;20105;-48
2022/09/07 11:19:44;;;;;;;38.53;20.67;;;32.40;99.90;;;;;;5011468;28;20022;-51
2022/09/07 11:22:19;;;;;;;61.88;46.28;;;32.50;99.90;;;;;;5011783;28;20159;-48
2022/09/07 11:25:04;;;;;;;23.25;12.93;;;32.50;99.90;;;;;;5016425;28;20061;-47
2022/09/07 11:28:02;;;;;;;68.53;55.83;;;32.60;99.90;;;;;;5010968;28;20032;-48
2022/09/07 11:30:39;;;;;;;24.55;16.52;;;32.60;99.90;;;;;;5011395;28;20042;-47
2022/09/07 11:33:31;;;;;;;11.80;4.75;;;32.50;99.90;;;;;;5011356;28;20463;-48
2022/09/07 11:36:14;;;;;;;10.18;7.03;;;32.60;99.90;;;;;;5011514;28;20054;-47
2022/09/07 11:39:05;;;;;;;10.82;3.53;;;32.60;99.90;;;;;;5011504;28;20022;-48
2022/09/07 11:41:38;;;;;;;13.57;4.72;;;32.60;99.90;;;;;;5015519;28;20106;-48
2022/09/07 11:44:25;;;;;;;11.07;3.47;;;32.50;99.90;;;;;;5018639;28;20018;-49
2022/09/07 11:47:02;;;;;;;8.43;2.70;;;32.40;99.90;;;;;;5011184;28;20069;-48
2022/09/07 11:49:29;;;;;;;9.30;2.33;;;32.30;99.90;;;;;;5036144;28;20359;-49
2022/09/07 11:51:57;;;;;;;;;;;32.20;99.90;;;;;;5010687;28;20050;-48
2022/09/07 11:54:50;;;;;;;8.20;3.20;;;32.10;99.90;;;;;;5014832;28;20221;-47
2022/09/07 11:57:37;;;;;;;9.25;2.55;;;32.00;99.90;;;;;;5020990;28;20157;-52
2022/09/07 12:00:10;;;;;;;8.88;2.20;;;31.90;99.90;;;;;;5013315;28;20065;-46
2022/09/07 12:02:45;;;;;;;9.18;3.05;;;31.80;99.90;;;;;;5025178;28;20060;-46
2022/09/07 12:05:36;;;;;;;10.73;2.42;;;31.70;99.90;;;;;;5030862;28;20021;-47
2022/09/07 12:08:23;;;;;;;6.55;2.88;;;31.60;99.90;;;;;;5028999;28;20031;-46
2022/09/07 12:11:14;;;;;;;6.88;2.28;;;31.50;99.90;;;;;;5017032;28;20038;-47
2022/09/07 12:13:54;;;;;;;9.02;2.40;;;31.60;99.90;;;;;;5023238;28;20048;-47
2022/09/07 12:16:20;;;;;;;15.15;5.75;;;31.60;99.90;;;;;;5025627;28;20064;-46
2022/09/07 12:18:58;;;;;;;9.15;4.45;;;31.50;99.90;;;;;;5033835;28;20485;-47
2022/09/07 12:21:41;;;;;;;9.40;4.90;;;31.60;99.90;;;;;;5021565;28;20442;-47
2022/09/07 12:24:40;;;;;;;22.73;12.63;;;31.60;99.90;;;;;;5014664;28;20038;-46
2022/09/07 12:27:09;;;;;;;9.70;3.80;;;31.80;99.90;;;;;;5028491;28;20523;-46
2022/09/07 12:29:35;;;;;;;14.32;4.10;;;31.70;99.90;;;;;;5017811;28;20484;-46
2022/09/07 12:32:02;;;;;;;10.95;4.25;;;31.70;99.90;;;;;;5027115;28;20522;-47
2022/09/07 12:34:31;;;;;;;7.50;3.28;;;31.70;99.90;;;;;;5014368;28;20501;-46
2022/09/07 12:36:57;;;;;;;9.60;2.25;;;31.70;99.90;;;;;;5014424;28;20509;-47
2022/09/07 12:39:24;;;;;;;7.13;1.90;;;31.70;99.90;;;;;;5014100;28;20022;-47
2022/09/07 12:41:53;;;;;;;5.45;1.95;;;31.70;99.90;;;;;;5021497;28;20159;-47
2022/09/07 12:44:23;;;;;;;5.80;2.85;;;31.70;99.90;;;;;;5022583;28;20026;-47
2022/09/07 12:46:54;;;;;;;8.98;3.35;;;31.70;99.90;;;;;;5027637;28;20481;-47
2022/09/07 12:49:26;;;;;;;12.57;4.85;;;31.70;99.90;;;;;;5014167;28;20505;-46
2022/09/07 12:51:58;;;;;;;5.97;2.20;;;31.80;99.90;;;;;;5016884;28;20033;-47
2022/09/07 12:54:44;;;;;;;7.55;3.05;;;31.70;99.90;;;;;;5023263;28;20112;-47
2022/09/07 12:57:37;;;;;;;10.93;1.65;;;31.70;99.90;;;;;;5018911;28;20125;-46
2022/09/07 13:00:04;;;;;;;10.00;2.78;;;31.80;99.90;;;;;;5023124;28;20072;-46
2022/09/07 13:02:44;;;;;;;7.80;2.30;;;31.80;99.90;;;;;;5014580;28;20066;-47
2022/09/07 13:05:42;;;;;;;6.53;2.45;;;31.80;99.90;;;;;;5017377;28;20037;-46
2022/09/07 13:08:23;;;;;;;5.90;1.85;;;31.80;99.90;;;;;;5019999;28;20037;-46
2022/09/07 13:10:48;;;;;;;10.32;2.67;;;31.90;99.90;;;;;;5021033;28;20049;-47